This is the latest recevied weather packets stored in our database for station/object KM7BEO. If no packets are shown the sender has not sent any weather packets the latest 10 day(s).
| Time | Temp. | Humidity | Pressure | Rain* | Wind** | Luminosity | Snow |
|---|---|---|---|---|---|---|---|
| 1777594362 | 17.78° C | 65% | 1016.5 hPa | 0 mm | - | 75 W/m² | - |
| 1777594057 | 17.78° C | 65% | 1016.6 hPa | 0 mm | - | 61 W/m² | - |
| 1777593753 | 18.33° C | 63% | 1016.6 hPa | 0 mm | - | 242 W/m² | - |
| 1777593450 | 18.89° C | 63% | 1016.6 hPa | 0 mm | - | 72 W/m² | - |
| 1777593148 | 18.89° C | 62% | 1016.7 hPa | 0 mm | - | 141 W/m² | - |
| 1777592847 | 18.89° C | 63% | 1016.6 hPa | 0 mm | - | 343 W/m² | - |
| 1777592544 | 18.89° C | 61% | 1016.7 hPa | 0 mm | - | 483 W/m² | - |
| 1777592240 | 19.44° C | 62% | 1016.7 hPa | 0 mm | - | 449 W/m² | - |
| 1777591936 | 18.89° C | 61% | 1016.9 hPa | 0 mm | - | 547 W/m² | - |
| 1777591632 | 18.33° C | 63% | 1017.1 hPa | 0 mm | - | 516 W/m² | - |
| 1777591329 | 17.78° C | 65% | 1017.1 hPa | 0 mm | - | 477 W/m² | - |
| 1777591024 | 17.78° C | 66% | 1017.2 hPa | 0 mm | - | 411 W/m² | - |
| 1777590720 | 17.78° C | 66% | 1017.3 hPa | 0 mm | - | 310 W/m² | - |
| 1777590416 | 17.78° C | 66% | 1017.3 hPa | 0 mm | - | 273 W/m² | - |
| 1777590113 | 17.78° C | 66% | 1017.5 hPa | 0 mm | - | 341 W/m² | - |
| 1777589809 | 17.22° C | 66% | 1017.5 hPa | 0 mm | - | 361 W/m² | - |
| 1777589504 | 17.22° C | 66% | 1017.6 hPa | 0 mm | - | 354 W/m² | - |
| 1777589204 | 17.22° C | 67% | 1017.6 hPa | 0 mm | - | 203 W/m² | - |
| 1777588900 | 17.78° C | 65% | 1017.8 hPa | 0 mm | - | 155 W/m² | - |
| 1777588597 | 17.22° C | 68% | 1017.7 hPa | 0 mm | - | 213 W/m² | - |
| 1777588297 | 17.22° C | 69% | 1017.9 hPa | 0 mm | - | 205 W/m² | - |
| 1777587992 | 17.22° C | 68% | 1017.9 hPa | 0 mm | - | 160 W/m² | - |
| 1777587689 | 16.67° C | 69% | 1017.8 hPa | 0 mm | - | 157 W/m² | - |
| 1777587388 | 16.67° C | 69% | 1017.8 hPa | 0 mm | - | 163 W/m² | - |
| 1777587085 | 17.22° C | 68% | 1017.9 hPa | 0 mm | - | 165 W/m² | - |
* Rain latest hour (hover to see other rain measurements)
** Current wind speed in m/s (hover to see current wind gust speed)